Decoded Metar for KMEM (MEMPHIS in TN, USA) (IATA:MEM) | Meteo·Mobile Aviation Weather
aviador You're here:

KMEM Decoded Metar

MEMPHIS in TN, USA
Report Time2019-02-16 07:54:00
UTC Time2019-02-16 08:05:57
Flight Rules ifr IFR
Wind010° at 09 kt
W.Decomp.*RWY 36: 8.9 kt HW 1.4 kt RCW
RWY 09: 1.4 kt HW 8.9 kt LCW
W.Rank010° ranks 7
Current wind is above 010° avg. (8.2)
Visibility9999 m
Phenomena:N/A
Clouds:Overcast 009 Hf
Expected CloudBase > 400 ft AGL from Temp-Dew spread
Ceiling900 ft
Temp02°C (ISA -12)
Dew Point01°C (93% RH)
AAT-3.1°C
QNH1013 hPa
Density Alt-1,142 ft
Elevation282 ft
Report Wrong Elevation
Raw Report
KMEM 160754Z 01009KT 7SM OVC009 02/01 A2991 RMK AO2 SLP129
T00170011=

Extra information for KMEM:More info

Metar Taf Metar & Taf Last 4 Metars F.Rules Stats Wind Profile Meteogram Temp Stats Airport Information Weather charts Add Link Nearby VenuesMetar ALERT Operation Metar Decoded Social comments

AIRNAV info for KMEM